Clovis, CA (93619)

12:11 AM PDT on September 18, 2014 (GMT -0700)
N. Clovis - Copper | Change Station
CLOSE
Current Station
Personal Weather Station
Location: Clovis, CA
Elevation: 394 ft
Nearby Weather Stations

Elev 394 ft 36.89 °N, 119.70 °W | Updated 7 seconds ago

Clear
Clear
74.9 °F
Feels Like 78 °F
N
0.4
Wind Variable Wind from NW
Gusts 2.5 mph

Today
High -- | Low -- °F
--% Chance of Precip.
Yesterday
High -- | Low -- °F
Precip. -- in
6:43 AM 7:01 PM
Waning Crescent, 29% visible
Pressure 29.74 in
Visibility 10.0 miles
Clouds Clear
Heat Index 78 °F
Dew Point 51 °F
Humidity 44%
Rainfall 0.00 in
Snow Depth Not available.
UV 0 out of 12
Pollen 6.90 out of 12
Air Quality Not available.
Flu Activity Not available.
METAR KFAT 180653Z 31010KT 10SM CLR 25/09 A2975 RMK AO2 SLP070 T02500094 $

More Conditions Fewer Conditions

Pressure 29.74 in
Visibility 10.0 miles
Clouds Clear
Heat Index 78 °F
Dew Point 51 °F
Humidity 44%
Rainfall 0.00 in
Snow Depth Not available.
UV 0 out of 12
Pollen 6.90 out of 12
Air Quality Not available.
Flu Activity Not available.
METAR KFAT 180653Z 31010KT 10SM CLR 25/09 A2975 RMK AO2 SLP070 T02500094 $

More Conditions Fewer Conditions

10-Day Weather Forecast

Almanac

Astronomy

Sep. 18, 2014 Rise Set
Actual Time 6:43 AM PDT 7:01 PM PDT
Civil Twilight 6:17 AM PDT 7:27 PM PDT
Nautical Twilight 5:46 AM PDT 7:57 PM PDT
Astronomical Twilight 5:16 AM PDT 8:28 PM PDT
Moon 1:45 AM PDT 3:50 PM PDT
Length of Visible Light 13h 09m
Length of Day
12h 18m
Tomorrow will be 2m 19s shorter.
Waning Crescent, 29% of the Moon is Illuminated
Today
Waning Crescent
Sep 24
New
Oct 1
First Quarter
Oct 8
Full
Oct 15
Last Quarter

Community

WunderPhotos

Upload Photos

1,754,299 photos uploaded!

Nearby

Air Quality

  Air Quality AQ Index Pollutant
Yesterday Moderate
OZONE
Wednesday Moderate
OZONE
Thursday Moderate
PM10
Friday Moderate
PM10
Saturday Moderate
PM10
Sunday Moderate
PM10
Monday Moderate
PM10

Snow Depth

Station Depth Elevation
Spratt Creek 0 in 6200 ft
CSS Lab 2 in 6900 ft
Tahoe City Cross 0 in 6750 ft
Summit Meadow 0 in 9122 ft
Monitor Pass 1 in 8350 ft

Earthquake Activity

City Distance Mag. Time & Date
No recent earthquake activity has been reported nearby.
Minimum magnitude displayed is 2.5.

Coastal Water Temperatures

Place Temperature
No Stations Reporting

Nearby Weather Stations